Time;durP1;ratioP1;P1;durP2;ratioP2;P2;SDS_P1;SDS_P2;PMS_P1;PMS_P2;Temp;Humidity;BMP_temperature;BMP_pressure;BME280_temperature;BME280_humidity;BME280_pressure;Samples;Min_cycle;Max_cycle;Signal;HPM_P1;HPM_P2
2023/04/11 00:01:00;;;;;;;;;;;;;;;19.47;42.44;100716.13;5089311;28;19923;-72
2023/04/11 00:03:25;;;;;;;;;;;;;;;19.46;42.43;100709.88;5088336;28;19961;-72
2023/04/11 00:05:50;;;;;;;;;;;;;;;19.45;42.38;100712.75;5074572;28;19948;-71
2023/04/11 00:08:15;;;;;;;;;;;;;;;19.44;42.51;100706.50;5092799;28;19931;-71
2023/04/11 00:10:40;;;;;;;;;;;;;;;19.43;42.58;100709.41;5087076;28;19952;-70
2023/04/11 00:13:06;;;;;;;;;;;;;;;19.42;42.48;100713.13;5096555;28;19913;-71
2023/04/11 00:15:31;;;;;;;;;;;;;;;19.40;42.51;100699.78;5092757;28;19955;-71
2023/04/11 00:17:57;;;;;;;;;;;;;;;19.39;42.35;100706.22;5092560;28;19939;-71
2023/04/11 00:20:22;;;;;;;;;;;;;;;19.38;42.40;100703.69;5095107;28;19912;-71
2023/04/11 00:22:47;;;;;;;;;;;;;;;19.37;42.35;100702.00;5091653;28;20427;-71
2023/04/11 00:25:13;;;;;;;;;;;;;;;19.35;42.56;100702.19;5091834;28;20445;-71
2023/04/11 00:27:38;;;;;;;;;;;;;;;19.35;42.44;100701.34;5089782;28;20144;-71
2023/04/11 00:30:06;;;;;;;;;;;;;;;19.33;42.58;100704.25;5090179;28;20011;-71
2023/04/11 00:32:31;;;;;;;;;;;;;;;19.32;42.48;100707.91;5089712;28;19916;-71
2023/04/11 00:34:57;;;;;;;;;;;;;;;19.32;42.58;100704.38;5091506;28;19912;-71
2023/04/11 00:37:23;;;;;;;;;;;;;;;19.31;42.58;100700.03;5087847;28;19939;-71
2023/04/11 00:39:54;;;;;;;;;;;;;;;19.30;42.34;100701.03;5091393;28;19916;-70
2023/04/11 00:42:19;;;;;;;;;;;;;;;19.29;42.49;100711.00;5093684;28;20373;-73
2023/04/11 00:44:45;;;;;;;;;;;;;;;19.28;42.31;100711.16;5095226;28;19912;-71
2023/04/11 00:47:10;;;;;;;;;;;;;;;19.28;42.37;100708.44;5094072;28;19942;-71
2023/04/11 00:49:35;;;;;;;;;;;;;;;19.26;42.38;100710.50;5104012;28;19913;-71
2023/04/11 00:52:01;;;;;;;;;;;;;;;19.23;42.61;100715.22;5106862;28;19916;-71
2023/04/11 00:54:28;;;;;;;;;;;;;;;19.22;42.36;100710.00;5092629;28;19912;-71
2023/04/11 00:57:03;;;;;;;;;;;;;;;19.22;42.51;100712.69;5089474;28;19930;-71
2023/04/11 00:59:28;;;;;;;;;;;;;;;19.21;42.57;100711.03;5088786;28;19928;-72
2023/04/11 01:01:54;;;;;;;;;;;;;;;19.20;42.38;100718.28;5089718;28;19920;-71
2023/04/11 01:04:20;;;;;;;;;;;;;;;19.19;42.41;100704.97;5087943;28;20365;-71
2023/04/11 01:06:46;;;;;;;;;;;;;;;19.19;42.60;100710.34;5090990;28;19924;-71
2023/04/11 01:09:11;;;;;;;;;;;;;;;19.17;42.56;100704.31;5098212;28;19927;-71
2023/04/11 01:11:36;;;;;;;;;;;;;;;19.16;42.41;100716.09;5090242;28;19913;-70
2023/04/11 01:14:02;;;;;;;;;;;;;;;18.66;42.59;100628.38;5102157;28;19927;-71
2023/04/11 01:16:27;;;;;;;;;;;;;;;19.13;42.42;100708.38;5101201;28;19919;-71
2023/04/11 01:18:52;;;;;;;;;;;;;;;19.13;42.52;100713.75;5107591;28;19916;-71
2023/04/11 01:21:18;;;;;;;;;;;;;;;19.12;42.52;100720.16;5078190;28;19966;-71
2023/04/11 01:23:43;;;;;;;;;;;;;;;19.11;42.55;100718.47;5074198;28;19912;-71
2023/04/11 01:26:08;;;;;;;;;;;;;;;19.10;42.68;100724.88;5092575;28;19924;-71
2023/04/11 01:28:33;;;;;;;;;;;;;;;19.09;42.63;100715.13;5110831;28;20372;-71
2023/04/11 01:30:59;;;;;;;;;;;;;;;19.07;42.56;100719.81;5093629;28;19923;-71
2023/04/11 01:33:24;;;;;;;;;;;;;;;19.06;42.70;100719.00;5093984;28;19916;-71
2023/04/11 01:35:49;;;;;;;;;;;;;;;19.05;42.42;100717.31;5096489;28;19913;-71
2023/04/11 01:38:14;;;;;;;;;;;;;;;19.04;42.42;100712.94;5091014;28;19920;-71
2023/04/11 01:40:40;;;;;;;;;;;;;;;19.04;42.40;100714.81;5098989;28;19951;-71
2023/04/11 01:43:08;;;;;;;;;;;;;;;19.02;42.46;100717.66;5111275;28;19913;-71
2023/04/11 01:45:33;;;;;;;;;;;;;;;19.02;42.70;100724.91;5091442;28;20432;-71
2023/04/11 01:47:58;;;;;;;;;;;;;;;19.01;42.67;100717.84;5080851;28;19959;-71
2023/04/11 01:50:23;;;;;;;;;;;;;;;19.00;42.65;100719.69;5092292;28;19920;-71
2023/04/11 01:52:49;;;;;;;;;;;;;;;18.99;42.36;100712.63;5089891;28;19948;-70
2023/04/11 01:55:14;;;;;;;;;;;;;;;18.98;42.76;100713.63;5092321;28;19912;-70
2023/04/11 01:57:40;;;;;;;;;;;;;;;18.97;42.46;100712.78;5093813;28;20001;-70
2023/04/11 02:00:05;;;;;;;;;;;;;;;18.96;42.74;100707.59;5094537;28;19924;-71
2023/04/11 02:02:30;;;;;;;;;;;;;;;18.95;42.47;100717.53;5091602;28;19916;-71
2023/04/11 02:04:56;;;;;;;;;;;;;;;18.94;42.26;100726.59;5092112;28;20365;-70
2023/04/11 02:07:21;;;;;;;;;;;;;;;18.93;42.55;100718.69;5093985;28;19931;-71
2023/04/11 02:09:46;;;;;;;;;;;;;;;18.91;42.60;100721.59;5098102;28;19912;-70
2023/04/11 02:12:11;;;;;;;;;;;;;;;18.92;42.29;100717.03;5091387;28;19912;-70
2023/04/11 02:14:40;;;;;;;;;;;;;;;18.90;42.31;100733.38;5097610;28;19916;-70
2023/04/11 02:17:08;;;;;;;;;;;;;;;18.88;42.42;100721.91;5090419;28;19912;-71
2023/04/11 02:19:33;;;;;;;;;;;;;;;18.88;42.23;100729.16;5091014;28;19916;-71
2023/04/11 02:21:59;;;;;;;;;;;;;;;18.85;42.42;100735.72;5075301;28;19928;-71
2023/04/11 02:24:24;;;;;;;;;;;;;;;18.85;42.27;100738.41;5091812;28;19998;-71
2023/04/11 02:26:49;;;;;;;;;;;;;;;18.84;42.46;100736.75;5094970;28;19956;-71
2023/04/11 02:29:14;;;;;;;;;;;;;;;18.83;42.17;100728.84;5095172;28;19974;-70
2023/04/11 02:31:40;;;;;;;;;;;;;;;18.82;42.21;100743.31;5081303;28;20416;-71
2023/04/11 02:34:05;;;;;;;;;;;;;;;18.81;42.25;100741.63;5106098;28;19916;-70
2023/04/11 02:36:30;;;;;;;;;;;;;;;18.80;42.10;100737.25;5098439;28;19912;-70
2023/04/11 02:38:55;;;;;;;;;;;;;;;18.78;42.21;100745.53;5090112;28;19916;-71
2023/04/11 02:41:20;;;;;;;;;;;;;;;18.78;42.21;100742.00;5096330;28;19912;-70
2023/04/11 02:43:46;;;;;;;;;;;;;;;18.77;42.09;100751.06;5093216;28;19952;-71
2023/04/11 02:46:11;;;;;;;;;;;;;;;18.76;42.13;100739.44;5089924;28;20346;-71
2023/04/11 02:48:36;;;;;;;;;;;;;;;18.74;42.03;100746.88;5093993;28;19923;-71
2023/04/11 02:51:01;;;;;;;;;;;;;;;18.74;42.29;100749.56;5090879;28;19951;-71
2023/04/11 02:53:27;;;;;;;;;;;;;;;18.72;42.03;100755.09;5092019;28;20276;-71
2023/04/11 02:55:52;;;;;;;;;;;;;;;18.72;41.97;100759.66;5087925;28;19943;-71
2023/04/11 02:58:18;;;;;;;;;;;;;;;18.71;41.97;100761.50;5094002;28;19921;-71
2023/04/11 03:00:44;;;;;;;;;;;;;;;18.69;42.07;100746.50;5093671;28;19980;-72
2023/04/11 03:03:10;;;;;;;;;;;;;;;18.68;41.90;100753.75;5109245;28;19942;-71
2023/04/11 03:05:35;;;;;;;;;;;;;;;18.67;42.05;100764.69;5090734;28;19992;-71
2023/04/11 03:08:01;;;;;;;;;;;;;;;18.66;41.93;100763.00;5095490;28;19920;-71
2023/04/11 03:10:26;;;;;;;;;;;;;;;18.65;41.63;100761.34;5094458;28;19926;-71
2023/04/11 03:12:51;;;;;;;;;;;;;;;18.64;41.82;100765.84;5089947;28;19919;-71
2023/04/11 03:15:16;;;;;;;;;;;;;;;18.63;41.82;100769.56;5092190;28;19935;-71
2023/04/11 03:17:41;;;;;;;;;;;;;;;18.63;41.56;100768.72;5088853;28;20095;-71
2023/04/11 03:20:08;;;;;;;;;;;;;;;18.62;41.62;100773.28;5090481;28;19955;-71
2023/04/11 03:22:33;;;;;;;;;;;;;;;18.62;41.58;100769.75;5091112;28;19998;-71
2023/04/11 03:24:58;;;;;;;;;;;;;;;18.62;41.59;100777.84;5091298;28;19963;-71
2023/04/11 03:27:23;;;;;;;;;;;;;;;18.61;41.55;100768.91;5091119;28;19920;-71
2023/04/11 03:29:48;;;;;;;;;;;;;;;18.61;41.79;100771.59;5092800;28;19939;-71
2023/04/11 03:32:14;;;;;;;;;;;;;;;18.61;41.67;100768.91;5092073;28;20387;-71
2023/04/11 03:34:39;;;;;;;;;;;;;;;18.61;41.71;100765.38;5090424;28;19916;-71
2023/04/11 03:37:04;;;;;;;;;;;;;;;18.62;41.57;100775.97;5081459;28;19912;-71
2023/04/11 03:39:29;;;;;;;;;;;;;;;18.62;41.55;100778.66;5088467;28;19920;-71
2023/04/11 03:41:54;;;;;;;;;;;;;;;18.62;41.54;100781.38;5093748;28;19923;-70
2023/04/11 03:44:19;;;;;;;;;;;;;;;18.62;41.55;100784.06;5090695;28;19916;-71
2023/04/11 03:46:45;;;;;;;;;;;;;;;18.63;41.35;100779.50;5089365;28;20293;-71
2023/04/11 03:49:10;;;;;;;;;;;;;;;18.64;41.49;100783.88;5090761;28;19921;-71
2023/04/11 03:51:35;;;;;;;;;;;;;;;18.64;41.43;100782.03;5089582;28;19913;-71
2023/04/11 03:54:00;;;;;;;;;;;;;;;18.65;41.59;100775.66;5088839;28;19912;-71
2023/04/11 03:56:25;;;;;;;;;;;;;;;18.66;41.40;100780.00;5089523;28;19992;-71
2023/04/11 03:58:51;;;;;;;;;;;;;;;18.67;41.68;100784.38;5080258;28;19916;-71
2023/04/11 04:01:16;;;;;;;;;;;;;;;18.68;41.36;100780.66;5089750;28;19916;-70
2023/04/11 04:03:41;;;;;;;;;;;;;;;18.68;41.38;100780.66;5096779;28;19916;-71
2023/04/11 04:06:06;;;;;;;;;;;;;;;18.70;41.51;100785.94;5089742;28;19928;-71
2023/04/11 04:08:32;;;;;;;;;;;;;;;18.71;41.28;100787.63;5089853;28;19916;-70
2023/04/11 04:10:57;;;;;;;;;;;;;;;18.72;41.31;100787.44;5092788;28;19916;-71
2023/04/11 04:13:22;;;;;;;;;;;;;;;18.75;41.20;100804.28;5104293;28;19912;-70
2023/04/11 04:15:48;;;;;;;;;;;;;;;18.76;41.16;100795.19;5090248;28;20583;-71
2023/04/11 04:18:14;;;;;;;;;;;;;;;18.77;41.27;100796.84;5088075;28;20050;-71
2023/04/11 04:20:40;;;;;;;;;;;;;;;18.78;41.27;100799.41;5090276;28;19918;-71
2023/04/11 04:23:05;;;;;;;;;;;;;;;18.79;41.10;100793.00;5088709;28;19927;-70
2023/04/11 04:25:30;;;;;;;;;;;;;;;18.81;41.12;100795.50;5093273;28;19944;-70
2023/04/11 04:27:56;;;;;;;;;;;;;;;18.81;41.41;100807.13;5090927;28;19946;-70
2023/04/11 04:30:22;;;;;;;;;;;;;;;18.83;41.18;100810.50;5094897;28;19938;-71
2023/04/11 04:32:53;;;;;;;;;;;;;;;18.85;40.88;100813.00;5092860;28;19912;-70
2023/04/11 04:35:18;;;;;;;;;;;;;;;18.86;40.92;100822.75;5089388;28;20578;-70
2023/04/11 04:37:46;;;;;;;;;;;;;;;18.88;40.94;100823.44;5094946;28;19939;-70
2023/04/11 04:40:12;;;;;;;;;;;;;;;18.88;40.97;100829.69;5090128;28;19923;-70
2023/04/11 04:42:40;;;;;;;;;;;;;;;18.90;40.77;100833.06;5093087;28;20285;-70
2023/04/11 04:45:05;;;;;;;;;;;;;;;18.92;40.76;100830.19;5091878;28;20011;-66
2023/04/11 04:47:32;;;;;;;;;;;;;;;18.93;40.90;100831.84;5088331;28;19916;-72
2023/04/11 04:49:57;;;;;;;;;;;;;;;18.95;41.00;100832.53;5093074;28;19987;-72
2023/04/11 04:52:26;;;;;;;;;;;;;;;18.95;41.15;100841.47;5096966;28;20023;-70
2023/04/11 04:54:51;;;;;;;;;;;;;;;18.98;41.06;100837.56;5101399;28;20073;-70
2023/04/11 04:57:17;;;;;;;;;;;;;;;19.00;41.37;100838.25;5105845;28;19916;-68
2023/04/11 04:59:45;;;;;;;;;;;;;;;19.03;41.16;100850.53;5102467;28;19920;-69
2023/04/11 05:02:10;;;;;;;;;;;;;;;19.06;41.47;100852.88;5101871;28;19916;-71
2023/04/11 05:04:35;;;;;;;;;;;;;;;19.08;41.32;100851.72;5083592;28;19933;-70
2023/04/11 05:07:01;;;;;;;;;;;;;;;19.11;41.53;100855.91;5101086;28;19925;-67
2023/04/11 05:09:26;;;;;;;;;;;;;;;19.12;41.37;100858.44;5103247;28;19969;-72
2023/04/11 05:11:51;;;;;;;;;;;;;;;19.14;41.24;100861.78;5101465;28;20257;-71
2023/04/11 05:14:16;;;;;;;;;;;;;;;19.16;41.05;100864.34;5101421;28;19952;-71
2023/04/11 05:16:42;;;;;;;;;;;;;;;19.17;41.16;100872.25;5083442;28;20000;-67
2023/04/11 05:19:07;;;;;;;;;;;;;;;19.20;41.22;100861.13;5099949;28;19921;-69
2023/04/11 05:21:32;;;;;;;;;;;;;;;19.21;41.00;100868.19;5102304;28;19912;-69
2023/04/11 05:23:58;;;;;;;;;;;;;;;19.23;40.89;100871.53;5103309;28;19927;-69
2023/04/11 05:26:23;;;;;;;;;;;;;;;19.26;41.05;100872.22;5101512;28;19938;-70
2023/04/11 05:28:48;;;;;;;;;;;;;;;19.28;41.08;100875.59;5098791;28;19959;-70
2023/04/11 05:31:13;;;;;;;;;;;;;;;19.29;41.11;100880.81;5104326;28;19923;-69
2023/04/11 05:33:38;;;;;;;;;;;;;;;19.31;40.79;100877.94;5099734;28;20018;-69
2023/04/11 05:36:05;;;;;;;;;;;;;;;19.32;40.94;100883.16;5099847;28;19912;-69
2023/04/11 05:38:32;;;;;;;;;;;;;;;19.35;40.95;100898.16;5082794;28;19923;-69
2023/04/11 05:40:57;;;;;;;;;;;;;;;19.35;40.86;100896.28;5097795;28;19916;-70
2023/04/11 05:43:22;;;;;;;;;;;;;;;19.38;40.78;100901.34;5099796;28;19935;-69
2023/04/11 05:45:47;;;;;;;;;;;;;;;19.38;40.61;100905.91;5101571;28;19912;-68
2023/04/11 05:48:13;;;;;;;;;;;;;;;19.40;40.90;100906.56;5082937;28;19916;-68
2023/04/11 05:50:39;;;;;;;;;;;;;;;19.41;40.50;100910.94;5100859;28;20008;-69
2023/04/11 05:53:04;;;;;;;;;;;;;;;19.43;40.63;100922.41;5100349;28;19938;-69
2023/04/11 05:55:29;;;;;;;;;;;;;;;19.44;40.69;100934.88;5100871;28;19916;-69
2023/04/11 05:57:54;;;;;;;;;;;;;;;19.45;40.71;100923.94;5103986;28;19923;-69
2023/04/11 06:00:20;;;;;;;;;;;;;;;19.48;40.46;100933.50;5100747;28;19919;-70
2023/04/11 06:02:47;;;;;;;;;;;;;;;19.48;40.38;100942.44;5101115;28;19912;-72
2023/04/11 06:05:14;;;;;;;;;;;;;;;19.49;40.48;100944.13;5099086;28;19987;-70
2023/04/11 06:07:40;;;;;;;;;;;;;;;19.52;40.43;100950.19;5097883;28;19924;-71
2023/04/11 06:10:05;;;;;;;;;;;;;;;19.52;40.32;100948.34;5082298;28;19912;-70
2023/04/11 06:12:31;;;;;;;;;;;;;;;19.54;40.39;100948.16;5100026;28;19920;-72
2023/04/11 06:14:57;;;;;;;;;;;;;;;19.54;40.13;100949.03;5102063;28;19912;-69
2023/04/11 06:17:22;;;;;;;;;;;;;;;19.55;40.17;100953.41;5084204;28;19923;-71
2023/04/11 06:19:47;;;;;;;;;;;;;;;19.58;39.87;100953.06;5100105;28;19968;-71
2023/04/11 06:22:12;;;;;;;;;;;;;;;19.60;39.84;100959.09;5098438;28;19919;-70
2023/04/11 06:24:38;;;;;;;;;;;;;;;19.62;39.83;100969.75;5100792;28;19924;-71
2023/04/11 06:27:03;;;;;;;;;;;;;;;19.61;39.42;100968.91;5100194;28;19920;-71
2023/04/11 06:29:29;;;;;;;;;;;;;;;19.63;39.70;100966.06;5101102;28;19931;-72
2023/04/11 06:31:54;;;;;;;;;;;;;;;19.64;39.50;100970.44;5103551;28;19920;-71
2023/04/11 06:34:20;;;;;;;;;;;;;;;19.65;39.59;100974.81;5094756;28;20303;-71
2023/04/11 06:36:47;;;;;;;;;;;;;;;19.66;39.49;100977.31;5090878;28;19919;-71
2023/04/11 06:39:12;;;;;;;;;;;;;;;19.68;39.62;100969.91;5096074;28;20471;-69
2023/04/11 06:41:37;;;;;;;;;;;;;;;19.70;39.53;100977.81;5100714;28;19938;-69
2023/04/11 06:44:02;;;;;;;;;;;;;;;19.72;39.37;100983.91;5100242;28;19986;-70
2023/04/11 06:46:27;;;;;;;;;;;;;;;19.75;39.23;100980.00;5100946;28;19983;-70
2023/04/11 06:48:53;;;;;;;;;;;;;;;19.77;39.23;100986.09;5100467;28;19966;-69
2023/04/11 06:51:18;;;;;;;;;;;;;;;19.77;39.12;100978.81;5093732;28;19913;-69
2023/04/11 06:53:43;;;;;;;;;;;;;;;19.80;39.38;100988.44;5098874;28;20007;-71
2023/04/11 06:56:09;;;;;;;;;;;;;;;19.81;39.03;100990.13;5090859;28;19958;-71
2023/04/11 06:58:34;;;;;;;;;;;;;;;19.82;38.96;100995.34;5095270;28;19912;-71
2023/04/11 07:00:59;;;;;;;;;;;;;;;19.84;38.85;100992.47;5092190;28;19925;-71
2023/04/11 07:03:25;;;;;;;;;;;;;;;19.84;38.91;100998.72;5091169;28;19920;-70
2023/04/11 07:05:50;;;;;;;;;;;;;;;19.87;39.00;100994.81;5097052;28;20084;-70
2023/04/11 07:08:15;;;;;;;;;;;;;;;19.88;38.75;101000.06;5089963;28;19916;-70
2023/04/11 07:10:40;;;;;;;;;;;;;;;19.88;38.64;101002.75;5088710;28;19944;-71
2023/04/11 07:13:06;;;;;;;;;;;;;;;19.90;38.96;101011.50;5092793;28;20372;-71
2023/04/11 07:15:31;;;;;;;;;;;;;;;19.92;38.91;101006.78;5094659;28;19923;-71
2023/04/11 07:17:56;;;;;;;;;;;;;;;19.93;38.56;101011.16;5088831;28;19912;-70
2023/04/11 07:20:21;;;;;;;;;;;;;;;19.94;38.63;101015.53;5102274;28;19933;-70
2023/04/11 07:22:46;;;;;;;;;;;;;;;19.95;38.60;101014.53;5082201;28;19913;-71
2023/04/11 07:25:12;;;;;;;;;;;;;;;19.97;38.68;101017.06;5100642;28;19934;-71
2023/04/11 07:27:37;;;;;;;;;;;;;;;19.99;38.83;101020.41;5101944;28;19925;-71
2023/04/11 07:30:03;;;;;;;;;;;;;;;20.02;38.70;101017.38;5082658;28;20387;-71
2023/04/11 07:32:28;;;;;;;;;;;;;;;20.05;38.68;101011.66;5100513;28;19916;-71
2023/04/11 07:34:54;;;;;;;;;;;;;;;20.07;38.76;101016.84;5100393;28;19916;-67
2023/04/11 07:37:20;;;;;;;;;;;;;;;20.08;38.53;101013.97;5099040;28;19916;-72
2023/04/11 07:39:45;;;;;;;;;;;;;;;20.10;38.74;101014.66;5100296;28;19912;-71
2023/04/11 07:42:10;;;;;;;;;;;;;;;20.12;38.65;101011.78;5098599;28;19923;-71
2023/04/11 07:44:36;;;;;;;;;;;;;;;20.15;38.47;101027.63;5080620;28;20711;-71
2023/04/11 07:47:01;;;;;;;;;;;;;;;20.16;38.70;101022.03;5081167;28;19912;-71
2023/04/11 07:49:26;;;;;;;;;;;;;;;20.17;38.70;101017.50;5098617;28;19923;-69
2023/04/11 07:51:51;;;;;;;;;;;;;;;20.18;38.76;101011.94;5097164;28;19912;-71
2023/04/11 07:54:16;;;;;;;;;;;;;;;20.21;38.54;101026.91;5098143;28;19934;-71
2023/04/11 07:56:42;;;;;;;;;;;;;;;20.22;38.41;101026.75;5097607;28;19919;-70
2023/04/11 07:59:07;;;;;;;;;;;;;;;20.25;38.30;101030.13;5099662;28;19916;-70
2023/04/11 08:01:32;;;;;;;;;;;;;;;20.26;38.03;101029.09;5096113;28;19919;-71
2023/04/11 08:03:57;;;;;;;;;;;;;;;20.27;37.88;101036.22;5089771;28;19923;-71
2023/04/11 08:06:22;;;;;;;;;;;;;;;20.28;37.78;101036.03;5084340;28;19920;-72
2023/04/11 08:08:48;;;;;;;;;;;;;;;20.29;37.96;101039.56;5098687;28;19927;-70
2023/04/11 08:11:14;;;;;;;;;;;;;;;20.29;37.90;101045.78;5097888;28;19924;-72
2023/04/11 08:13:39;;;;;;;;;;;;;;;20.30;37.58;101047.47;5100277;28;19946;-72
2023/04/11 08:16:06;;;;;;;;;;;;;;;20.32;37.74;101044.63;5097108;28;19931;-72
2023/04/11 08:18:32;;;;;;;;;;;;;;;20.34;37.88;101058.78;5093568;28;19912;-72
2023/04/11 08:20:57;;;;;;;;;;;;;;;20.36;37.54;101054.06;5098454;28;19959;-74
2023/04/11 08:23:22;;;;;;;;;;;;;;;20.37;37.54;101067.38;5093893;28;19916;-71
2023/04/11 08:25:47;;;;;;;;;;;;;;;20.39;37.40;101065.34;5090692;28;19917;-73
2023/04/11 08:28:14;;;;;;;;;;;;;;;20.41;37.76;101060.59;5093211;28;19996;-72
2023/04/11 08:30:42;;;;;;;;;;;;;;;20.43;37.38;101073.91;5092170;28;19927;-74
2023/04/11 08:33:08;;;;;;;;;;;;;;;20.45;37.67;101066.50;5092404;28;19966;-72
2023/04/11 08:35:34;;;;;;;;;;;;;;;20.46;37.38;101074.41;5089189;28;20085;-73
2023/04/11 08:37:59;;;;;;;;;;;;;;;20.49;37.50;101065.16;5091729;28;19921;-74
2023/04/11 08:40:24;;;;;;;;;;;;;;;20.52;37.49;101080.16;5090499;28;19981;-73
2023/04/11 08:42:49;;;;;;;;;;;;;;;20.53;37.10;101071.91;5094269;28;19915;-74
2023/04/11 08:45:14;;;;;;;;;;;;;;;20.56;37.08;101068.00;5092047;28;20008;-74
2023/04/11 08:47:40;;;;;;;;;;;;;;;20.56;37.24;101068.88;5097471;28;19924;-73
2023/04/11 08:50:05;;;;;;;;;;;;;;;20.59;37.26;101082.00;5092329;28;19924;-73
2023/04/11 08:52:30;;;;;;;;;;;;;;;20.61;37.41;101066.47;5094515;28;20319;-74
2023/04/11 08:54:56;;;;;;;;;;;;;;;20.62;37.09;101076.25;5093307;28;19928;-72
2023/04/11 08:57:24;;;;;;;;;;;;;;;20.64;36.78;101071.50;5092367;28;19923;-68
2023/04/11 08:59:50;;;;;;;;;;;;;;;20.66;36.69;101074.03;5092953;28;20340;-74
2023/04/11 09:02:15;;;;;;;;;;;;;;;20.67;36.97;101071.16;5089697;28;19945;-74
2023/04/11 09:04:41;;;;;;;;;;;;;;;20.70;36.96;101086.19;5092803;28;19937;-74
2023/04/11 09:07:06;;;;;;;;;;;;;;;20.72;36.58;101089.53;5094075;28;19920;-73
2023/04/11 09:09:31;;;;;;;;;;;;;;;20.74;36.37;101081.28;5098834;28;19916;-73
2023/04/11 09:11:57;;;;;;;;;;;;;;;20.76;36.59;101087.31;5089660;28;19917;-74
2023/04/11 09:14:23;;;;;;;;;;;;;;;20.76;36.46;101093.56;5096841;28;19912;-74
2023/04/11 09:16:52;;;;;;;;;;;;;;;20.77;36.29;101095.25;5095328;28;19952;-74
2023/04/11 09:19:28;;;;;;;;;;;;;;;20.79;36.16;101090.53;5091638;28;19912;-72
2023/04/11 09:21:53;;;;;;;;;;;;;;;20.81;36.39;101077.66;5099225;28;19916;-73
2023/04/11 09:24:19;;;;;;;;;;;;;;;20.84;36.34;101080.03;5090951;28;20438;-73
2023/04/11 09:26:44;;;;;;;;;;;;;;;20.86;36.39;101096.06;5099602;28;19916;-73
2023/04/11 09:29:09;;;;;;;;;;;;;;;20.88;36.05;101081.34;5097311;28;19924;-72
2023/04/11 09:31:41;;;;;;;;;;;;;;;20.91;36.14;101089.13;5103886;28;20440;-73
2023/04/11 09:34:06;;;;;;;;;;;;;;;20.95;36.02;101098.56;5096330;28;19916;-73
2023/04/11 09:36:31;;;;;;;;;;;;;;;20.99;35.95;101090.09;5097164;28;19912;-74
2023/04/11 09:38:57;;;;;;;;;;;;;;;21.02;36.07;101100.53;5092961;28;19920;-73
2023/04/11 09:41:35;;;;;;;;;;;;;;;21.04;35.84;101096.63;5098211;28;20384;-74
2023/04/11 09:44:00;;;;;;;;;;;;;;;21.09;35.96;101096.09;5097676;28;19960;-74
2023/04/11 09:46:25;;;;;;;;;;;;;;;21.13;36.02;101103.69;5098704;28;19951;-72
2023/04/11 09:48:51;;;;;;;;;;;;;;;21.17;36.24;101098.75;5102750;28;20011;-73
2023/04/11 09:51:17;;;;;;;;;;;;;;;21.20;36.24;101101.94;5094104;28;19923;-73
2023/04/11 09:53:42;;;;;;;;;;;;;;;21.25;35.76;101106.81;5094530;28;19921;-73
2023/04/11 09:56:08;;;;;;;;;;;;;;;21.27;36.03;101106.63;5096060;28;19916;-72
2023/04/11 09:58:35;;;;;;;;;;;;;;;21.31;35.70;101126.88;5097329;28;19912;-71
2023/04/11 10:01:00;;;;;;;;;;;;;;;21.33;35.75;101117.63;5095673;28;19924;-68
2023/04/11 10:03:26;;;;;;;;;;;;;;;21.35;35.57;101120.13;5101103;28;19974;-71
2023/04/11 10:05:51;;;;;;;;;;;;;;;21.38;35.65;101119.78;5099849;28;19955;-70
2023/04/11 10:08:21;;;;;;;;;;;;;;;21.41;35.77;101114.03;5071100;28;19924;-71
2023/04/11 10:10:46;;;;;;;;;;;;;;;21.45;35.56;101113.47;5113508;28;20419;-71
2023/04/11 10:13:30;;;;;;;;;;;;;;;21.49;35.74;101115.78;5111119;28;19991;-69
2023/04/11 10:16:09;;;;;;;;;;;;;;;21.53;35.60;101115.25;5099687;28;20275;-72
2023/04/11 10:18:57;;;;;;;;;;;;;;;21.57;35.47;101115.72;5091498;28;19912;-71
2023/04/11 10:21:29;;;;;;;;;;;;;;;21.61;35.79;101115.19;5022241;28;19918;-70
2023/04/11 10:24:07;;;;;;;;;;;;;;;21.66;35.69;101122.75;5022455;28;20392;-70
2023/04/11 10:26:45;;;;;;;;;;;;;;;21.71;35.50;101126.63;5022431;28;19969;-72
2023/04/11 10:32:14;;;;;;;;;;;;;;;21.80;35.63;101137.38;5022902;28;19921;-70
2023/04/11 10:34:59;;;;;;;;;;;;;;;21.83;35.78;101123.47;5011200;28;19914;-70
2023/04/11 10:37:31;;;;;;;;;;;;;;;21.85;35.40;101137.69;5021807;28;20008;-70
2023/04/11 10:39:59;;;;;;;;;;;;;;;21.86;35.40;101125.81;5022883;28;19921;-69
2023/04/11 10:42:25;;;;;;;;;;;;;;;21.88;35.37;101131.91;5023333;28;19913;-70
2023/04/11 10:45:09;;;;;;;;;;;;;;;21.90;35.17;101133.38;5023378;28;19917;-70
2023/04/11 10:47:34;;;;;;;;;;;;;;;21.95;35.56;101135.53;5016296;28;19960;-67
2023/04/11 10:49:59;;;;;;;;;;;;;;;21.99;35.21;101142.28;5016023;28;19960;-71
2023/04/11 10:52:26;;;;;;;;;;;;;;;22.02;35.29;101139.22;5021346;28;20008;-71
2023/04/11 10:54:51;;;;;;;;;;;;;;;22.05;35.18;101149.69;5021079;28;19917;-70
2023/04/11 10:57:17;;;;;;;;;;;;;;;22.04;35.13;101147.97;5024034;28;19913;-71
2023/04/11 10:59:42;;;;;;;;;;;;;;;22.04;35.18;101145.25;5092637;28;20368;-71
2023/04/11 11:02:07;;;;;;;;;;;;;;;22.06;34.93;101155.94;5091216;28;19919;-70
2023/04/11 11:04:35;;;;;;;;;;;;;;;22.09;34.83;101152.84;5075956;28;19916;-70
2023/04/11 11:07:02;;;;;;;;;;;;;;;22.10;34.87;101162.66;5092366;28;20572;-72
2023/04/11 11:09:28;;;;;;;;;;;;;;;22.09;34.68;101169.94;5096468;28;19923;-72
2023/04/11 11:12:09;;;;;;;;;;;;;;;22.10;34.52;101166.22;5092946;28;19917;-72
2023/04/11 11:14:35;;;;;;;;;;;;;;;22.13;34.51;101157.75;5094168;28;19983;-71
2023/04/11 11:17:00;;;;;;;;;;;;;;;22.14;34.34;101169.44;5095560;28;19917;-72
2023/04/11 11:19:25;;;;;;;;;;;;;;;22.16;34.30;101153.81;5108680;28;19916;-72
2023/04/11 11:21:51;;;;;;;;;;;;;;;22.18;34.17;101160.75;5070432;28;19917;-71
2023/04/11 11:24:22;;;;;;;;;;;;;;;22.22;34.32;101158.53;5073119;28;20449;-70
2023/04/11 11:26:49;;;;;;;;;;;;;;;22.25;34.27;101179.78;5092402;28;19919;-71
2023/04/11 11:29:14;;;;;;;;;;;;;;;22.27;34.05;101168.78;5093737;28;19941;-71
2023/04/11 11:31:44;;;;;;;;;;;;;;;22.27;34.15;101183.19;5092339;28;19952;-70
2023/04/11 11:34:09;;;;;;;;;;;;;;;22.29;34.05;101174.84;5090826;28;19916;-70
2023/04/11 11:36:36;;;;;;;;;;;;;;;22.30;34.06;101173.81;5093149;28;19970;-72
2023/04/11 11:39:04;;;;;;;;;;;;;;;22.35;33.75;101179.56;5108490;28;19913;-73
2023/04/11 11:41:29;;;;;;;;;;;;;;;22.38;33.64;101177.28;5104882;28;19916;-72
2023/04/11 11:43:54;;;;;;;;;;;;;;;22.41;34.03;101170.66;5082327;28;19928;-72
2023/04/11 11:46:20;;;;;;;;;;;;;;;22.42;34.08;101184.03;5098817;28;19923;-71
2023/04/11 11:49:06;;;;;;;;;;;;;;;22.42;34.05;101175.06;5079462;28;20156;-68
2023/04/11 11:51:38;;;;;;;;;;;;;;;22.43;33.79;101169.47;5098955;28;19924;-71
2023/04/11 11:54:05;;;;;;;;;;;;;;;22.44;33.65;101183.84;5100051;28;19918;-70
2023/04/11 11:56:30;;;;;;;;;;;;;;;22.44;33.77;101183.84;5099577;28;19946;-71
2023/04/11 11:58:56;;;;;;;;;;;;;;;22.46;33.70;101190.75;5097851;28;19916;-70
2023/04/11 12:01:21;;;;;;;;;;;;;;;22.47;33.69;101191.59;5095259;28;19916;-70
2023/04/11 12:03:47;;;;;;;;;;;;;;;22.49;33.74;101181.44;5098550;28;20030;-69
2023/04/11 12:06:12;;;;;;;;;;;;;;;22.49;33.80;101178.72;5092530;28;19920;-71
2023/04/11 12:08:40;;;;;;;;;;;;;;;22.48;33.92;101181.63;5088136;28;20293;-72
2023/04/11 12:11:09;;;;;;;;;;;;;;;22.49;33.96;101191.44;5096823;28;20139;-70
2023/04/11 12:13:34;;;;;;;;;;;;;;;22.49;33.96;101194.97;5088750;28;20373;-72
2023/04/11 12:16:00;;;;;;;;;;;;;;;22.50;34.09;101187.69;5070849;28;19959;-71
2023/04/11 12:18:26;;;;;;;;;;;;;;;22.51;33.99;101192.06;5092877;28;19912;-71
2023/04/11 12:20:51;;;;;;;;;;;;;;;22.50;34.10;101185.81;5091889;28;19920;-71
2023/04/11 12:23:17;;;;;;;;;;;;;;;22.52;33.96;101191.06;5086824;28;20084;-71
2023/04/11 12:25:42;;;;;;;;;;;;;;;22.52;34.05;101189.19;5075128;28;19931;-70
2023/04/11 12:28:08;;;;;;;;;;;;;;;22.53;34.39;101182.75;5088929;28;19975;-70
2023/04/11 12:30:33;;;;;;;;;;;;;;;22.55;34.09;101196.09;5088686;28;19927;-70
2023/04/11 12:32:58;;;;;;;;;;;;;;;22.56;34.45;101198.63;5094893;28;19955;-69